createdAt,value
2019-04-20T00:02:12.504Z,3.30
2019-04-20T00:04:39.009Z,3.65
2019-04-20T00:07:10.085Z,3.30
2019-04-20T00:09:45.427Z,2.98
2019-04-20T00:12:19.083Z,3.72
2019-04-20T00:14:44.070Z,3.17
2019-04-20T00:17:13.934Z,3.20
2019-04-20T00:19:47.552Z,2.72
2019-04-20T00:22:23.389Z,3.80
2019-04-20T00:25:12.638Z,2.87
2019-04-20T00:27:59.695Z,3.25
2019-04-20T00:30:31.560Z,4.05
2019-04-20T00:32:55.891Z,4.92
2019-04-20T00:35:16.879Z,4.50
2019-04-20T00:37:46.751Z,5.03
2019-04-20T00:40:17.122Z,5.05
2019-04-20T00:42:51.794Z,5.20
2019-04-20T00:45:25.208Z,4.72
2019-04-20T00:47:57.359Z,4.45
2019-04-20T00:50:36.739Z,4.20
2019-04-20T00:53:03.150Z,3.87
2019-04-20T00:55:25.192Z,3.65
2019-04-20T00:58:03.728Z,3.20
2019-04-20T01:00:40.542Z,3.50
2019-04-20T01:03:14.271Z,3.50
2019-04-20T01:06:06.271Z,3.27
2019-04-20T01:08:23.389Z,3.35
2019-04-20T01:10:56.562Z,3.30
2019-04-20T01:13:26.700Z,3.55
2019-04-20T01:16:04.731Z,3.77
2019-04-20T01:18:27.597Z,3.80
2019-04-20T01:21:04.977Z,3.98
2019-04-20T01:23:35.585Z,4.50
2019-04-20T01:26:05.548Z,4.85
2019-04-20T01:28:46.388Z,4.10
2019-04-20T01:31:17.746Z,3.50
2019-04-20T01:33:46.093Z,3.77
2019-04-20T01:36:26.248Z,3.80
2019-04-20T01:38:52.238Z,3.75
2019-04-20T01:41:09.612Z,4.40
2019-04-20T01:43:39.568Z,4.25
2019-04-20T01:46:15.528Z,4.62
2019-04-20T01:48:42.888Z,3.95
2019-04-20T01:51:19.715Z,4.10
2019-04-20T01:54:02.060Z,4.08
2019-04-20T01:56:31.655Z,4.00
2019-04-20T01:59:04.697Z,4.80
2019-04-20T02:01:39.690Z,4.65
2019-04-20T02:04:15.743Z,4.12
2019-04-20T02:06:48.586Z,4.55
2019-04-20T02:09:19.090Z,4.83
2019-04-20T02:11:48.777Z,5.95
2019-04-20T02:14:25.674Z,4.67
2019-04-20T02:16:57.774Z,4.30
2019-04-20T02:19:34.774Z,4.00
2019-04-20T02:22:03.823Z,3.80
2019-04-20T02:24:23.718Z,4.15
2019-04-20T02:26:53.655Z,4.47
2019-04-20T02:29:44.612Z,4.35
2019-04-20T02:32:22.447Z,4.40
2019-04-20T02:40:13.085Z,3.75
2019-04-20T02:42:46.703Z,3.80
2019-04-20T02:45:17.386Z,3.90
2019-04-20T02:50:15.547Z,3.47
2019-04-20T02:52:50.618Z,3.90
2019-04-20T02:55:15.219Z,3.65
2019-04-20T02:57:55.163Z,3.52
2019-04-20T03:00:12.647Z,4.47
2019-04-20T03:02:34.549Z,4.00
2019-04-20T03:05:05.664Z,4.40
2019-04-20T03:07:36.206Z,4.67
2019-04-20T03:10:14.073Z,5.25
2019-04-20T03:12:44.861Z,4.90
2019-04-20T03:15:20.884Z,4.60
2019-04-20T03:17:50.776Z,4.58
2019-04-20T03:20:23.092Z,4.83
2019-04-20T03:23:11.717Z,4.92
2019-04-20T03:25:45.064Z,4.85
2019-04-20T03:28:14.063Z,4.28
2019-04-20T03:33:31.008Z,4.15
2019-04-20T03:35:58.019Z,4.12
2019-04-20T03:38:24.587Z,4.00
2019-04-20T03:40:45.299Z,3.70
2019-04-20T03:43:02.674Z,4.05
2019-04-20T03:45:41.614Z,3.75
2019-04-20T03:48:17.165Z,4.00
2019-04-20T03:51:00.509Z,3.42
2019-04-20T03:53:29.939Z,3.98
2019-04-20T03:56:01.984Z,3.90
2019-04-20T03:58:47.210Z,4.55
2019-04-20T04:01:43.332Z,3.52
2019-04-20T04:04:05.353Z,3.80
2019-04-20T04:06:24.372Z,3.72
2019-04-20T04:08:58.920Z,3.60
2019-04-20T04:11:31.447Z,4.12
2019-04-20T04:13:48.131Z,4.00
2019-04-20T04:16:21.582Z,4.17
2019-04-20T04:19:02.838Z,4.47
2019-04-20T04:21:38.307Z,4.08
2019-04-20T04:24:05.601Z,4.80
2019-04-20T04:26:38.914Z,4.35
2019-04-20T04:29:19.154Z,4.00
2019-04-20T04:31:57.731Z,3.98
2019-04-20T04:34:20.631Z,4.92
2019-04-20T04:36:53.726Z,4.53
2019-04-20T04:39:29.384Z,4.70
2019-04-20T04:42:01.872Z,4.40
2019-04-20T04:44:19.281Z,4.53
2019-04-20T04:46:44.624Z,4.70
2019-04-20T04:49:18.033Z,4.50
2019-04-20T04:51:49.177Z,4.28
2019-04-20T04:54:22.007Z,4.17
2019-04-20T04:56:41.948Z,3.83
2019-04-20T04:59:12.766Z,4.20
2019-04-20T05:01:48.867Z,4.00
2019-04-20T05:04:33.914Z,4.20
2019-04-20T05:06:59.491Z,3.80
2019-04-20T05:09:19.363Z,4.40
2019-04-20T05:11:49.692Z,4.17
2019-04-20T05:14:26.187Z,4.35
2019-04-20T05:17:09.934Z,6.00
2019-04-20T05:19:50.772Z,4.50
2019-04-20T05:22:22.944Z,4.70
2019-04-20T05:24:56.715Z,4.30
2019-04-20T05:27:36.105Z,5.12
2019-04-20T05:29:44.731Z,4.55
2019-04-20T05:32:18.788Z,4.80
2019-04-20T05:35:10.883Z,4.87
2019-04-20T05:37:45.176Z,4.70
2019-04-20T05:40:12.854Z,4.17
2019-04-20T05:42:43.957Z,4.85
2019-04-20T05:45:11.808Z,4.40
2019-04-20T05:47:44.115Z,4.55
2019-04-20T05:50:08.243Z,4.85
2019-04-20T05:52:56.322Z,4.95
2019-04-20T05:55:20.911Z,5.12
2019-04-20T05:57:56.980Z,5.00
2019-04-20T06:00:27.805Z,5.08
2019-04-20T06:02:54.901Z,4.85
2019-04-20T06:05:27.508Z,4.75
2019-04-20T06:07:59.299Z,5.53
2019-04-20T06:10:38.457Z,4.72
2019-04-20T06:13:00.241Z,5.22
2019-04-20T06:15:39.271Z,6.03
2019-04-20T06:18:12.345Z,5.65
2019-04-20T06:20:48.432Z,5.00
2019-04-20T06:23:47.129Z,5.42
2019-04-20T06:26:26.783Z,5.97
2019-04-20T06:28:40.602Z,4.72
2019-04-20T06:31:19.039Z,4.92
2019-04-20T06:36:53.533Z,5.53
2019-04-20T06:39:30.924Z,5.25
2019-04-20T06:42:15.187Z,5.15
2019-04-20T06:49:36.804Z,5.37
2019-04-20T06:52:23.098Z,5.50
2019-04-20T06:54:55.132Z,5.72
2019-04-20T06:57:30.977Z,5.80
2019-04-20T06:59:59.792Z,5.70
2019-04-20T07:02:36.044Z,5.50
2019-04-20T07:05:05.345Z,5.90
2019-04-20T07:07:41.884Z,6.25
2019-04-20T07:10:14.761Z,6.28
2019-04-20T07:12:37.914Z,5.90
2019-04-20T07:14:58.647Z,5.60
2019-04-20T07:18:02.996Z,5.67
2019-04-20T07:20:19.332Z,6.25
2019-04-20T07:23:03.064Z,5.92
2019-04-20T07:25:34.138Z,6.10
2019-04-20T07:28:02.960Z,5.87
2019-04-20T07:30:35.325Z,5.60
2019-04-20T07:33:04.308Z,5.45
2019-04-20T07:35:36.008Z,6.03
2019-04-20T07:40:38.359Z,5.80
2019-04-20T07:43:13.350Z,4.75
2019-04-20T07:45:36.439Z,5.62
2019-04-20T07:48:14.983Z,5.90
2019-04-20T07:50:37.325Z,6.42
2019-04-20T07:53:13.555Z,8.80
2019-04-20T07:55:50.765Z,6.97
2019-04-20T07:58:10.959Z,7.15
2019-04-20T08:03:39.458Z,5.87
2019-04-20T08:06:11.527Z,6.62
2019-04-20T08:08:54.087Z,6.12
2019-04-20T08:11:21.609Z,5.33
2019-04-20T08:14:01.976Z,6.03
2019-04-20T08:16:43.919Z,6.22
2019-04-20T08:19:00.580Z,6.15
2019-04-20T08:21:37.356Z,6.80
2019-04-20T08:24:02.015Z,7.00
2019-04-20T08:26:23.086Z,7.80
2019-04-20T08:29:20.577Z,8.50
2019-04-20T08:32:17.873Z,9.10
2019-04-20T08:34:52.210Z,7.42
2019-04-20T08:37:17.212Z,8.80
2019-04-20T08:39:58.408Z,7.10
2019-04-20T08:42:21.699Z,8.08
2019-04-20T08:45:04.162Z,7.28
2019-04-20T08:50:20.982Z,6.65
2019-04-20T08:55:19.763Z,6.97
2019-04-20T08:57:33.609Z,6.83
2019-04-20T09:00:07.090Z,6.53
2019-04-20T09:02:41.220Z,7.55
2019-04-20T09:05:24.890Z,6.75
2019-04-20T09:07:53.179Z,7.12
2019-04-20T09:10:39.521Z,6.40
2019-04-20T09:13:02.557Z,6.40
2019-04-20T09:15:21.134Z,6.20
2019-04-20T09:17:58.223Z,6.33
2019-04-20T09:20:36.511Z,6.03
2019-04-20T09:23:18.166Z,7.28
2019-04-20T09:28:29.276Z,6.65
2019-04-20T09:31:21.158Z,5.75
2019-04-20T09:34:01.610Z,5.97
2019-04-20T09:36:27.606Z,5.70
2019-04-20T09:39:15.303Z,6.08
2019-04-20T09:41:59.100Z,5.58
2019-04-20T09:44:13.389Z,5.78
2019-04-20T09:46:50.926Z,6.15
2019-04-20T09:49:24.483Z,5.62
2019-04-20T09:52:03.982Z,6.35
2019-04-20T09:54:40.468Z,6.58
2019-04-20T09:57:10.459Z,5.45
2019-04-20T09:59:37.286Z,6.35
2019-04-20T10:02:02.176Z,5.35
2019-04-20T10:04:24.058Z,5.35
2019-04-20T10:06:55.124Z,5.28
2019-04-20T10:09:30.584Z,6.30
2019-04-20T10:11:57.561Z,7.53
2019-04-20T10:14:27.278Z,5.50
2019-04-20T10:16:57.980Z,5.25
2019-04-20T10:19:32.515Z,5.00
2019-04-20T10:22:00.389Z,5.45
2019-04-20T10:24:30.632Z,4.90
2019-04-20T10:27:00.819Z,5.05
2019-04-20T10:29:31.296Z,4.60
2019-04-20T10:32:05.544Z,4.47
2019-04-20T10:34:32.830Z,4.40
2019-04-20T10:37:03.745Z,4.30
2019-04-20T10:39:36.289Z,4.47
2019-04-20T10:42:06.218Z,4.08
2019-04-20T10:44:36.955Z,4.15
2019-04-20T10:47:07.286Z,4.60
2019-04-20T10:49:38.424Z,4.47
2019-04-20T10:52:09.486Z,3.92
2019-04-20T10:54:40.618Z,4.08
2019-04-20T10:57:10.431Z,4.05
2019-04-20T10:59:41.456Z,4.12
2019-04-20T11:02:12.119Z,4.30
2019-04-20T11:04:41.993Z,3.83
2019-04-20T11:07:12.499Z,4.20
2019-04-20T11:09:42.828Z,4.17
2019-04-20T11:12:12.661Z,4.03
2019-04-20T11:14:45.219Z,3.40
2019-04-20T11:17:14.138Z,3.58
2019-04-20T11:19:45.258Z,3.05
2019-04-20T11:22:16.608Z,3.25
2019-04-20T11:24:46.491Z,3.15
2019-04-20T11:27:16.328Z,3.52
2019-04-20T11:29:46.384Z,2.92
2019-04-20T11:32:16.310Z,2.98
2019-04-20T11:34:47.090Z,2.92
2019-04-20T11:37:17.230Z,3.10
2019-04-20T11:39:47.485Z,3.00
2019-04-20T11:42:17.448Z,2.90
2019-04-20T11:44:48.705Z,3.05
2019-04-20T11:47:18.907Z,3.45
2019-04-20T11:49:49.382Z,2.55
2019-04-20T11:52:21.185Z,3.55
2019-04-20T11:54:50.770Z,3.00
2019-04-20T11:57:21.569Z,2.92
2019-04-20T11:59:52.904Z,3.37
2019-04-20T12:02:44.732Z,2.58
2019-04-20T12:05:24.960Z,2.85
2019-04-20T12:08:04.955Z,3.50
2019-04-20T12:10:35.262Z,3.50
2019-04-20T12:13:05.867Z,2.85
2019-04-20T12:15:38.607Z,2.60
2019-04-20T12:18:09.524Z,2.52
2019-04-20T12:20:40.876Z,2.80
2019-04-20T12:23:10.778Z,2.65
2019-04-20T12:25:42.456Z,2.87
2019-04-20T12:28:13.562Z,2.45
2019-04-20T12:30:43.901Z,2.30
2019-04-20T12:33:13.743Z,2.92
2019-04-20T12:35:44.500Z,2.83
2019-04-20T12:38:14.927Z,2.52
2019-04-20T12:40:46.110Z,2.50
2019-04-20T12:43:17.216Z,2.62
2019-04-20T12:45:47.714Z,2.67
2019-04-20T12:48:17.700Z,2.22
2019-04-20T12:50:47.926Z,2.60
2019-04-20T12:53:17.691Z,2.42
2019-04-20T12:55:48.448Z,2.60
2019-04-20T12:58:18.669Z,2.50
2019-04-20T13:00:52.235Z,2.40
2019-04-20T13:03:23.578Z,2.27
2019-04-20T13:05:54.232Z,3.00
2019-04-20T13:08:31.804Z,2.37
2019-04-20T13:11:00.307Z,2.25
2019-04-20T13:13:48.271Z,3.00
2019-04-20T13:16:20.593Z,2.50
2019-04-20T13:18:53.052Z,2.90
2019-04-20T13:21:23.072Z,2.10
2019-04-20T13:23:53.198Z,2.55
2019-04-20T13:26:23.255Z,2.62
2019-04-20T13:28:55.138Z,2.50
2019-04-20T13:31:26.124Z,2.40
2019-04-20T13:33:57.178Z,2.22
2019-04-20T13:36:28.517Z,2.42
2019-04-20T13:38:59.579Z,2.55
2019-04-20T13:41:29.927Z,2.50
2019-04-20T13:44:01.446Z,2.52
2019-04-20T13:46:31.649Z,2.47
2019-04-20T13:49:01.283Z,2.52
2019-04-20T13:51:31.110Z,3.25
2019-04-20T13:54:01.755Z,2.95
2019-04-20T13:56:32.329Z,2.42
2019-04-20T13:59:07.558Z,2.95
2019-04-20T14:01:41.186Z,3.47
2019-04-20T14:04:11.097Z,3.30
2019-04-20T14:06:41.980Z,3.62
2019-04-20T14:09:12.461Z,3.80
2019-04-20T14:11:43.449Z,5.33
2019-04-20T14:14:13.438Z,2.65
2019-04-20T14:16:43.405Z,8.43
2019-04-20T14:19:14.372Z,3.70
2019-04-20T14:21:44.388Z,3.35
2019-04-20T14:24:15.049Z,4.10
2019-04-20T14:26:45.800Z,3.30
2019-04-20T14:29:16.873Z,5.40
2019-04-20T14:31:47.998Z,4.33
2019-04-20T14:34:17.753Z,4.05
2019-04-20T14:36:48.724Z,4.70
2019-04-20T14:39:18.615Z,3.80
2019-04-20T14:41:48.677Z,3.08
2019-04-20T14:44:19.612Z,3.22
2019-04-20T14:46:49.752Z,3.65
2019-04-20T14:49:20.838Z,3.20
2019-04-20T14:51:50.791Z,4.08
2019-04-20T14:54:21.340Z,3.12
2019-04-20T14:56:51.699Z,3.50
2019-04-20T14:59:29.583Z,3.20
2019-04-20T15:02:01.124Z,3.17
2019-04-20T15:04:32.226Z,2.92
2019-04-20T15:07:02.486Z,3.20
2019-04-20T15:09:36.881Z,3.83
2019-04-20T15:12:06.727Z,3.50
2019-04-20T15:14:36.848Z,3.10
2019-04-20T15:17:08.902Z,3.40
2019-04-20T15:19:41.356Z,3.50
2019-04-20T15:22:31.660Z,3.10
2019-04-20T15:25:01.596Z,3.30
2019-04-20T15:27:31.370Z,3.55
2019-04-20T15:30:02.555Z,3.45
2019-04-20T15:32:33.198Z,3.22
2019-04-20T15:35:03.202Z,3.40
2019-04-20T15:37:33.125Z,3.45
2019-04-20T15:40:03.427Z,3.47
2019-04-20T15:42:33.526Z,3.60
2019-04-20T15:45:05.270Z,4.03
2019-04-20T15:47:36.120Z,3.75
2019-04-20T15:50:07.921Z,3.87
2019-04-20T15:52:43.216Z,4.55
2019-04-20T15:55:18.140Z,4.10
2019-04-20T15:57:40.706Z,7.00
2019-04-20T16:00:11.031Z,4.28
2019-04-20T16:02:41.216Z,4.30
2019-04-20T16:05:16.565Z,3.67
2019-04-20T16:07:52.461Z,3.77
2019-04-20T16:10:19.266Z,4.37
2019-04-20T16:13:02.980Z,3.47
2019-04-20T16:15:21.999Z,3.35
2019-04-20T16:17:53.238Z,3.50
2019-04-20T16:20:25.038Z,3.70
2019-04-20T16:22:54.839Z,3.37
2019-04-20T16:25:35.511Z,3.60
2019-04-20T16:28:05.762Z,3.55
2019-04-20T16:30:35.940Z,3.33
2019-04-20T16:33:06.266Z,3.42
2019-04-20T16:35:36.406Z,3.42
2019-04-20T16:38:06.731Z,3.62
2019-04-20T16:40:37.721Z,3.12
2019-04-20T16:43:17.976Z,3.12
2019-04-20T16:45:39.241Z,3.40
2019-04-20T16:48:10.396Z,3.60
2019-04-20T16:50:40.762Z,3.47
2019-04-20T16:53:10.773Z,3.02
2019-04-20T16:55:40.955Z,3.20
2019-04-20T16:58:10.854Z,2.90
2019-04-20T17:00:41.281Z,3.50
2019-04-20T17:03:11.224Z,3.27
2019-04-20T17:05:41.277Z,3.10
2019-04-20T17:08:11.277Z,3.30
2019-04-20T17:10:41.406Z,3.20
2019-04-20T17:13:11.611Z,3.33
2019-04-20T17:15:41.494Z,3.27
2019-04-20T17:18:11.755Z,3.10
2019-04-20T17:20:41.714Z,3.17
2019-04-20T17:23:11.384Z,2.70
2019-04-20T17:25:41.923Z,2.87
2019-04-20T17:28:25.266Z,3.20
2019-04-20T17:31:13.513Z,2.90
2019-04-20T17:33:58.168Z,2.70
2019-04-20T17:36:21.495Z,3.05
2019-04-20T17:38:54.128Z,2.40
2019-04-20T17:41:40.159Z,2.95
2019-04-20T17:44:10.015Z,3.50
2019-04-20T17:46:37.188Z,2.50
2019-04-20T17:49:09.626Z,2.77
2019-04-20T17:51:47.621Z,3.00
2019-04-20T17:54:03.097Z,3.20
2019-04-20T17:56:28.686Z,3.00
2019-04-20T17:58:58.569Z,2.70
2019-04-20T18:01:41.274Z,2.30
2019-04-20T18:04:39.800Z,2.33
2019-04-20T18:06:47.880Z,2.45
2019-04-20T18:09:34.409Z,2.50
2019-04-20T18:11:45.362Z,2.20
2019-04-20T18:14:28.637Z,2.30
2019-04-20T18:17:13.841Z,2.50
2019-04-20T18:19:34.211Z,2.30
2019-04-20T18:22:03.830Z,2.02
2019-04-20T18:24:59.917Z,2.70
2019-04-20T18:27:27.856Z,2.17
2019-04-20T18:29:53.368Z,2.30
2019-04-20T18:32:09.812Z,2.22
2019-04-20T18:34:45.827Z,2.30
2019-04-20T18:37:16.883Z,2.02
2019-04-20T18:39:53.431Z,2.25
2019-04-20T18:42:23.404Z,2.45
2019-04-20T18:45:09.283Z,2.60
2019-04-20T18:47:39.422Z,2.60
2019-04-20T18:50:01.119Z,2.65
2019-04-20T18:52:21.987Z,2.62
2019-04-20T18:54:55.295Z,2.30
2019-04-20T18:57:26.067Z,2.80
2019-04-20T18:59:56.682Z,2.42
2019-04-20T19:02:30.880Z,2.17
2019-04-20T19:04:59.923Z,2.60
2019-04-20T19:07:34.849Z,2.75
2019-04-20T19:10:13.870Z,2.77
2019-04-20T19:12:42.448Z,2.65
2019-04-20T19:15:37.995Z,3.00
2019-04-20T19:18:07.794Z,2.83
2019-04-20T19:20:30.650Z,3.10
2019-04-20T19:23:02.022Z,2.95
2019-04-20T19:25:36.971Z,2.80
2019-04-20T19:28:05.083Z,2.58
2019-04-20T19:30:44.268Z,2.70
2019-04-20T19:33:23.010Z,2.90
2019-04-20T19:35:46.843Z,2.80
2019-04-20T19:38:17.393Z,2.95
2019-04-20T19:40:51.254Z,3.08
2019-04-20T19:43:22.590Z,2.90
2019-04-20T19:46:24.116Z,2.98
2019-04-20T19:48:28.269Z,2.72
2019-04-20T19:51:10.184Z,3.20
2019-04-20T19:53:37.898Z,2.98
2019-04-20T19:56:01.220Z,3.30
2019-04-20T19:58:32.794Z,3.05
2019-04-20T20:00:57.711Z,2.92
2019-04-20T20:03:26.118Z,2.75
2019-04-20T20:05:57.807Z,3.00
2019-04-20T20:08:31.048Z,2.72
2019-04-20T20:11:01.345Z,3.20
2019-04-20T20:13:36.174Z,2.83
2019-04-20T20:16:09.684Z,3.02
2019-04-20T20:18:49.130Z,3.05
2019-04-20T20:21:21.903Z,2.98
2019-04-20T20:23:36.707Z,2.85
2019-04-20T20:26:09.067Z,2.80
2019-04-20T20:28:47.070Z,2.85
2019-04-20T20:31:22.348Z,3.55
2019-04-20T20:33:54.582Z,3.70
2019-04-20T20:36:19.736Z,3.17
2019-04-20T20:38:49.291Z,3.00
2019-04-20T20:41:25.404Z,3.10
2019-04-20T20:43:56.558Z,2.92
2019-04-20T20:46:27.536Z,2.85
2019-04-20T20:49:21.183Z,2.75
2019-04-20T20:51:43.763Z,2.77
2019-04-20T20:54:03.728Z,2.90
2019-04-20T20:56:29.129Z,3.65
2019-04-20T20:59:04.089Z,3.50
2019-04-20T21:01:37.819Z,3.35
2019-04-20T21:03:58.532Z,3.30
2019-04-20T21:06:28.728Z,3.02
2019-04-20T21:09:01.308Z,2.60
2019-04-20T21:11:34.018Z,2.92
2019-04-20T21:14:01.391Z,3.20
2019-04-20T21:16:33.400Z,3.10
2019-04-20T21:19:20.193Z,3.15
2019-04-20T21:21:46.350Z,3.60
2019-04-20T21:24:14.529Z,3.00
2019-04-20T21:26:44.107Z,3.60
2019-04-20T21:29:13.622Z,3.15
2019-04-20T21:31:56.782Z,3.35
2019-04-20T21:34:19.558Z,3.25
2019-04-20T21:36:47.280Z,4.10
2019-04-20T21:39:31.261Z,4.20
2019-04-20T21:41:56.045Z,4.60
2019-04-20T21:44:25.238Z,4.12
2019-04-20T21:46:54.597Z,3.75
2019-04-20T21:49:36.141Z,3.65
2019-04-20T21:52:01.134Z,3.75
2019-04-20T21:54:26.284Z,3.80
2019-04-20T21:57:01.619Z,4.35
2019-04-20T21:59:36.283Z,4.45
2019-04-20T22:02:07.773Z,4.12
2019-04-20T22:04:31.638Z,4.03
2019-04-20T22:07:02.553Z,4.90
2019-04-20T22:09:40.417Z,4.03
2019-04-20T22:12:04.036Z,3.92
2019-04-20T22:14:34.024Z,4.85
2019-04-20T22:17:05.489Z,3.98
2019-04-20T22:19:44.111Z,4.17
2019-04-20T22:22:18.659Z,4.40
2019-04-20T22:24:53.921Z,4.60
2019-04-20T22:27:19.464Z,4.22
2019-04-20T22:29:41.802Z,3.98
2019-04-20T22:32:13.789Z,4.37
2019-04-20T22:34:47.585Z,4.10
2019-04-20T22:37:21.261Z,4.55
2019-04-20T22:39:52.570Z,4.97
2019-04-20T22:42:20.444Z,5.08
2019-04-20T22:44:58.733Z,5.17
2019-04-20T22:47:27.051Z,4.30
2019-04-20T22:50:16.309Z,4.67
2019-04-20T22:52:40.857Z,5.08
2019-04-20T22:55:22.396Z,4.97
2019-04-20T22:57:44.768Z,4.17
2019-04-20T23:00:06.281Z,4.50
2019-04-20T23:02:31.529Z,4.35
2019-04-20T23:05:02.721Z,4.70
2019-04-20T23:07:32.758Z,5.10
2019-04-20T23:10:03.772Z,4.70
2019-04-20T23:12:34.050Z,4.85
2019-04-20T23:15:04.647Z,5.20
2019-04-20T23:17:39.909Z,4.30
2019-04-20T23:20:15.156Z,4.53
2019-04-20T23:22:45.248Z,4.37
2019-04-20T23:25:11.262Z,4.55
2019-04-20T23:27:42.090Z,4.90
2019-04-20T23:30:23.668Z,4.08
2019-04-20T23:32:46.069Z,4.80
2019-04-20T23:35:19.777Z,4.55
2019-04-20T23:37:48.506Z,4.58
2019-04-20T23:40:19.488Z,4.67
2019-04-20T23:42:57.881Z,4.65
2019-04-20T23:45:38.813Z,4.17
2019-04-20T23:48:08.483Z,5.03
2019-04-20T23:50:54.405Z,8.98
2019-04-20T23:53:28.417Z,7.35
2019-04-20T23:55:43.632Z,6.60
2019-04-20T23:58:14.685Z,5.80
